createdAt,value
2023-05-09T00:00:11.018Z,8.90
2023-05-09T00:02:38.660Z,9.13
2023-05-09T00:05:07.710Z,9.50
2023-05-09T00:07:36.555Z,11.77
2023-05-09T00:10:04.138Z,11.77
2023-05-09T00:12:31.957Z,10.03
2023-05-09T00:14:59.469Z,14.23
2023-05-09T00:17:28.528Z,10.63
2023-05-09T00:19:56.331Z,15.03
2023-05-09T00:22:23.842Z,13.13
2023-05-09T00:24:52.970Z,10.77
2023-05-09T00:27:20.634Z,11.40
2023-05-09T00:29:48.071Z,11.43
2023-05-09T00:32:15.635Z,10.17
2023-05-09T00:34:43.301Z,14.07
2023-05-09T00:37:10.754Z,9.90
2023-05-09T00:39:38.229Z,11.83
2023-05-09T00:42:07.144Z,12.30
2023-05-09T00:44:34.614Z,11.10
2023-05-09T00:47:02.110Z,10.93
2023-05-09T00:49:29.618Z,11.23
2023-05-09T00:51:57.234Z,11.10
2023-05-09T00:54:24.698Z,12.70
2023-05-09T00:56:52.237Z,11.80
2023-05-09T00:59:21.912Z,11.03
2023-05-09T01:01:49.452Z,11.00
2023-05-09T01:04:17.360Z,11.23
2023-05-09T01:06:49.860Z,10.70
2023-05-09T01:09:26.347Z,11.03
2023-05-09T01:12:03.232Z,9.57
2023-05-09T01:14:55.467Z,10.67
2023-05-09T01:17:32.017Z,10.13
2023-05-09T01:20:06.066Z,11.67
2023-05-09T01:22:35.919Z,12.13
2023-05-09T01:25:10.929Z,11.63
2023-05-09T01:27:45.257Z,12.40
2023-05-09T01:30:14.632Z,9.83
2023-05-09T01:32:44.136Z,12.30
2023-05-09T01:35:14.676Z,13.20
2023-05-09T01:37:44.085Z,11.57
2023-05-09T01:40:15.278Z,10.00
2023-05-09T01:42:45.055Z,13.10
2023-05-09T01:45:15.027Z,12.00
2023-05-09T01:47:43.107Z,11.07
2023-05-09T01:50:12.459Z,16.80
2023-05-09T01:52:41.152Z,9.63
2023-05-09T01:55:09.916Z,10.93
2023-05-09T01:57:38.474Z,10.90
2023-05-09T02:00:07.883Z,12.13
2023-05-09T02:02:37.153Z,11.17
2023-05-09T02:05:05.061Z,9.60
2023-05-09T02:07:33.309Z,9.33
2023-05-09T02:10:01.663Z,10.73
2023-05-09T02:12:29.301Z,11.90
2023-05-09T02:14:56.796Z,12.70
2023-05-09T02:17:24.299Z,10.63
2023-05-09T02:19:53.148Z,11.77
2023-05-09T02:22:20.648Z,11.73
2023-05-09T02:24:48.160Z,13.80
2023-05-09T02:27:15.914Z,11.00
2023-05-09T02:29:45.709Z,12.33
2023-05-09T02:32:16.468Z,16.00
2023-05-09T02:34:44.821Z,10.73
2023-05-09T02:37:14.658Z,12.33
2023-05-09T02:39:42.246Z,11.47
2023-05-09T02:42:12.227Z,12.33
2023-05-09T02:44:39.712Z,11.93
2023-05-09T02:47:08.325Z,9.60
2023-05-09T02:49:35.823Z,10.57
2023-05-09T02:52:03.334Z,11.40
2023-05-09T02:54:32.133Z,10.00
2023-05-09T02:57:00.014Z,11.27
2023-05-09T02:59:27.841Z,10.13
2023-05-09T03:01:55.423Z,12.57
2023-05-09T03:04:22.946Z,11.50
2023-05-09T03:06:50.474Z,11.50
2023-05-09T03:09:17.929Z,10.37
2023-05-09T03:11:46.723Z,13.90
2023-05-09T03:14:15.248Z,11.20
2023-05-09T03:16:42.692Z,11.37
2023-05-09T03:19:10.482Z,13.90
2023-05-09T03:21:37.937Z,13.17
2023-05-09T03:24:06.007Z,11.90
2023-05-09T03:26:35.547Z,12.03
2023-05-09T03:29:04.525Z,11.10
2023-05-09T03:31:32.154Z,11.67
2023-05-09T03:33:59.669Z,12.30
2023-05-09T03:36:27.375Z,11.90
2023-05-09T03:38:54.835Z,13.10
2023-05-09T03:41:22.396Z,10.80
2023-05-09T03:43:49.855Z,12.77
2023-05-09T03:46:18.679Z,10.87
2023-05-09T03:48:46.195Z,11.40
2023-05-09T03:51:13.714Z,10.90
2023-05-09T03:53:41.167Z,11.37
2023-05-09T03:56:08.846Z,13.03
2023-05-09T03:58:36.332Z,10.27
2023-05-09T04:01:03.818Z,11.50
2023-05-09T04:03:32.917Z,11.00
2023-05-09T04:06:00.575Z,11.50
2023-05-09T04:08:28.373Z,12.20
2023-05-09T04:10:55.863Z,12.07
2023-05-09T04:13:23.531Z,11.80
2023-05-09T04:15:51.269Z,10.67
2023-05-09T04:18:18.743Z,11.63
2023-05-09T04:20:47.595Z,12.10
2023-05-09T04:23:15.033Z,10.73
2023-05-09T04:25:42.568Z,11.90
2023-05-09T04:28:10.013Z,11.57
2023-05-09T04:30:37.609Z,11.40
2023-05-09T04:33:05.485Z,11.60
2023-05-09T04:35:32.988Z,11.80
2023-05-09T04:38:01.754Z,11.17
2023-05-09T04:40:29.322Z,11.53
2023-05-09T04:42:57.470Z,13.17
2023-05-09T04:45:24.930Z,11.90
2023-05-09T04:47:52.506Z,10.07
2023-05-09T04:50:20.121Z,11.77
2023-05-09T04:52:47.571Z,11.50
2023-05-09T04:55:16.672Z,10.40
2023-05-09T04:57:44.210Z,12.93
2023-05-09T05:00:12.837Z,13.47
2023-05-09T05:02:40.403Z,12.73
2023-05-09T05:05:12.037Z,11.63
2023-05-09T05:07:40.448Z,10.83
2023-05-09T05:10:09.026Z,12.20
2023-05-09T05:12:37.878Z,11.80
2023-05-09T05:15:06.812Z,12.10
2023-05-09T05:17:34.276Z,14.33
2023-05-09T05:20:01.794Z,12.07
2023-05-09T05:22:31.546Z,12.73
2023-05-09T05:25:00.135Z,13.17
2023-05-09T05:27:27.638Z,16.37
2023-05-09T05:29:56.418Z,18.60
2023-05-09T05:32:23.984Z,19.83
2023-05-09T05:34:51.541Z,19.50
2023-05-09T05:37:19.056Z,19.80
2023-05-09T05:39:46.518Z,19.70
2023-05-09T05:42:13.980Z,17.80
2023-05-09T05:44:41.478Z,18.70
2023-05-09T05:47:10.436Z,17.77
2023-05-09T05:49:37.909Z,18.97
2023-05-09T05:52:05.660Z,17.77
2023-05-09T05:54:33.133Z,17.30
2023-05-09T05:57:00.567Z,16.57
2023-05-09T05:59:28.013Z,18.53
2023-05-09T06:01:55.452Z,18.17
2023-05-09T06:04:24.222Z,20.23
2023-05-09T06:06:51.711Z,14.80
2023-05-09T06:09:19.448Z,15.30
2023-05-09T06:11:46.899Z,15.40
2023-05-09T06:14:14.355Z,16.63
2023-05-09T06:16:41.848Z,15.57
2023-05-09T06:19:09.371Z,16.33
2023-05-09T06:21:38.210Z,15.67
2023-05-09T06:24:11.764Z,15.20
2023-05-09T06:26:44.688Z,14.23
2023-05-09T06:29:14.146Z,14.00
2023-05-09T06:31:41.656Z,15.33
2023-05-09T06:34:09.280Z,15.20
2023-05-09T06:36:38.094Z,15.37
2023-05-09T06:39:05.559Z,20.70
2023-05-09T06:41:33.019Z,15.23
2023-05-09T06:44:02.357Z,15.70
2023-05-09T06:46:29.853Z,15.97
2023-05-09T06:48:57.294Z,14.27
2023-05-09T06:51:24.743Z,15.07
2023-05-09T06:53:53.521Z,13.73
2023-05-09T06:56:22.633Z,14.20
2023-05-09T06:58:50.199Z,14.60
2023-05-09T07:01:17.947Z,15.33
2023-05-09T07:03:46.916Z,14.27
2023-05-09T07:06:14.591Z,13.80
2023-05-09T07:08:42.046Z,12.33
2023-05-09T07:11:10.834Z,14.03
2023-05-09T07:13:38.433Z,14.60
2023-05-09T07:16:06.763Z,15.20
2023-05-09T07:18:34.340Z,17.00
2023-05-09T07:21:01.774Z,13.37
2023-05-09T07:23:29.242Z,18.47
2023-05-09T07:25:58.101Z,14.57
2023-05-09T07:28:26.942Z,13.63
2023-05-09T07:30:56.501Z,16.07
2023-05-09T07:33:23.985Z,15.70
2023-05-09T07:35:52.863Z,15.13
2023-05-09T07:38:20.331Z,14.27
2023-05-09T07:40:48.038Z,15.37
2023-05-09T07:43:15.608Z,14.20
2023-05-09T07:45:44.654Z,13.30
2023-05-09T07:48:12.489Z,12.77
2023-05-09T07:50:40.653Z,14.50
2023-05-09T07:53:08.137Z,12.90
2023-05-09T07:55:36.317Z,12.13
2023-05-09T07:58:03.804Z,13.73
2023-05-09T08:00:31.322Z,12.70
2023-05-09T08:03:00.806Z,12.53
2023-05-09T08:05:28.549Z,16.03
2023-05-09T08:07:55.998Z,14.37
2023-05-09T08:10:23.850Z,16.27
2023-05-09T08:12:51.462Z,13.47
2023-05-09T08:15:19.080Z,17.77
2023-05-09T08:17:46.556Z,14.30
2023-05-09T08:20:15.395Z,17.23
2023-05-09T08:22:42.928Z,17.07
2023-05-09T08:25:10.845Z,19.97
2023-05-09T08:27:38.390Z,15.67
2023-05-09T08:30:07.329Z,15.80
2023-05-09T08:32:34.795Z,18.00
2023-05-09T08:35:02.296Z,15.10
2023-05-09T08:37:31.086Z,20.03
2023-05-09T08:39:58.563Z,17.20
2023-05-09T08:42:26.968Z,18.53
2023-05-09T08:44:54.427Z,16.37
2023-05-09T08:47:22.468Z,19.73
2023-05-09T08:49:51.259Z,19.70
2023-05-09T08:52:19.157Z,13.53
2023-05-09T08:54:48.053Z,14.17
2023-05-09T08:57:16.216Z,15.70
2023-05-09T08:59:43.692Z,14.90
2023-05-09T09:02:14.420Z,15.20
2023-05-09T09:04:42.058Z,15.27
2023-05-09T09:07:10.097Z,13.90
2023-05-09T09:09:38.293Z,12.67
2023-05-09T09:12:09.605Z,13.43
2023-05-09T09:14:39.379Z,15.00
2023-05-09T09:17:08.087Z,15.53
2023-05-09T09:19:36.659Z,11.93
2023-05-09T09:22:05.496Z,14.90
2023-05-09T09:24:33.205Z,12.90
2023-05-09T09:27:06.128Z,13.03
2023-05-09T09:29:35.645Z,16.60
2023-05-09T09:32:04.652Z,14.20
2023-05-09T09:34:32.206Z,14.20
2023-05-09T09:36:59.965Z,13.20
2023-05-09T09:39:27.502Z,15.30
2023-05-09T09:41:54.932Z,22.00
2023-05-09T09:44:23.626Z,13.17
2023-05-09T09:46:54.000Z,13.43
2023-05-09T09:49:23.301Z,12.37
2023-05-09T09:51:51.601Z,13.53
2023-05-09T09:54:20.568Z,14.37
2023-05-09T09:56:48.876Z,13.60
2023-05-09T09:59:18.301Z,13.67
2023-05-09T10:02:08.558Z,13.20
2023-05-09T10:04:37.354Z,12.97
2023-05-09T10:07:06.209Z,12.30
2023-05-09T10:09:35.146Z,12.97
2023-05-09T10:12:04.413Z,13.97
2023-05-09T10:14:35.114Z,13.00
2023-05-09T10:17:04.600Z,16.40
2023-05-09T10:19:33.994Z,12.40
2023-05-09T10:22:05.059Z,12.17
2023-05-09T10:24:36.661Z,12.80
2023-05-09T10:27:05.499Z,12.27
2023-05-09T10:29:36.698Z,10.70
2023-05-09T10:32:14.266Z,12.10
2023-05-09T10:34:45.470Z,11.20
2023-05-09T10:37:13.402Z,11.30
2023-05-09T10:39:41.516Z,13.80
2023-05-09T10:42:09.791Z,13.07
2023-05-09T10:44:38.433Z,16.50
2023-05-09T10:47:06.393Z,12.90
2023-05-09T10:49:36.348Z,11.60
2023-05-09T10:52:06.126Z,10.80
2023-05-09T10:54:33.683Z,10.20
2023-05-09T10:57:01.382Z,9.80
2023-05-09T10:59:37.664Z,10.30
2023-05-09T11:02:05.888Z,10.57
2023-05-09T11:04:33.678Z,10.30
2023-05-09T11:07:01.589Z,10.20
2023-05-09T11:09:35.425Z,8.80
2023-05-09T11:12:09.757Z,10.07
2023-05-09T11:14:42.402Z,9.77
2023-05-09T11:17:11.394Z,10.03
2023-05-09T11:19:59.236Z,9.57
2023-05-09T11:22:27.993Z,9.17
2023-05-09T11:25:04.549Z,13.27
2023-05-09T11:27:39.207Z,8.57
2023-05-09T11:30:08.827Z,10.60
2023-05-09T11:32:43.162Z,10.10
2023-05-09T11:35:12.480Z,9.67
2023-05-09T11:37:48.214Z,9.70
2023-05-09T11:40:18.263Z,11.43
2023-05-09T11:42:49.252Z,11.70
2023-05-09T11:45:17.885Z,11.80
2023-05-09T11:47:46.360Z,12.47
2023-05-09T11:50:15.073Z,13.30
2023-05-09T11:52:43.303Z,16.23
2023-05-09T11:55:13.017Z,17.13
2023-05-09T11:57:42.520Z,17.53
2023-05-09T12:00:11.568Z,25.67
2023-05-09T12:02:39.351Z,18.63
2023-05-09T12:05:11.267Z,14.33
2023-05-09T12:07:39.532Z,14.80
2023-05-09T12:10:09.013Z,18.53
2023-05-09T12:12:36.857Z,15.77
2023-05-09T12:15:08.582Z,16.47
2023-05-09T12:17:36.281Z,15.97
2023-05-09T12:20:05.782Z,16.60
2023-05-09T12:22:33.868Z,15.47
2023-05-09T12:25:03.804Z,18.10
2023-05-09T12:27:32.938Z,15.63
2023-05-09T12:30:01.411Z,14.47
2023-05-09T12:32:32.837Z,14.20
2023-05-09T12:35:01.420Z,14.40
2023-05-09T12:37:32.446Z,14.00
2023-05-09T12:40:04.690Z,13.90
2023-05-09T12:42:32.294Z,14.03
2023-05-09T12:44:59.985Z,13.53
2023-05-09T12:47:28.732Z,13.07
2023-05-09T12:49:59.806Z,14.77
2023-05-09T12:52:33.940Z,14.07
2023-05-09T12:55:06.720Z,14.10
2023-05-09T12:57:34.241Z,19.50
2023-05-09T13:00:03.844Z,21.83
2023-05-09T13:02:35.478Z,18.83
2023-05-09T13:05:10.218Z,18.27
2023-05-09T13:07:41.395Z,17.30
2023-05-09T13:10:12.846Z,22.90
2023-05-09T13:12:40.468Z,19.20
2023-05-09T13:15:09.896Z,19.33
2023-05-09T13:17:37.463Z,22.77
2023-05-09T13:20:05.541Z,20.20
2023-05-09T13:22:34.480Z,21.47
2023-05-09T13:25:02.009Z,20.10
2023-05-09T13:27:29.635Z,20.63
2023-05-09T13:29:57.177Z,20.63
2023-05-09T13:32:25.427Z,23.53
2023-05-09T13:34:53.237Z,18.33
2023-05-09T13:37:21.600Z,20.83
2023-05-09T13:39:50.438Z,19.20
2023-05-09T13:42:19.184Z,16.57
2023-05-09T13:44:46.835Z,14.77
2023-05-09T13:47:14.276Z,17.73
2023-05-09T13:49:41.731Z,14.43
2023-05-09T13:52:09.221Z,14.50
2023-05-09T13:54:37.029Z,16.27
2023-05-09T13:57:06.255Z,12.80
2023-05-09T13:59:33.702Z,12.67
2023-05-09T14:02:01.776Z,14.33
2023-05-09T14:04:30.042Z,12.50
2023-05-09T14:06:57.595Z,14.20
2023-05-09T14:09:26.180Z,13.30
2023-05-09T14:11:55.425Z,10.83
2023-05-09T14:14:25.406Z,11.27
2023-05-09T14:16:53.902Z,19.50
2023-05-09T14:19:21.430Z,12.53
2023-05-09T14:21:48.957Z,11.87
2023-05-09T14:24:16.688Z,15.60
2023-05-09T14:26:44.995Z,13.40
2023-05-09T14:29:12.481Z,12.47
2023-05-09T14:31:41.398Z,11.97
2023-05-09T14:34:09.280Z,12.53
2023-05-09T14:36:37.405Z,11.40
2023-05-09T14:39:05.361Z,13.37
2023-05-09T14:41:32.840Z,12.00
2023-05-09T14:44:00.314Z,12.43
2023-05-09T14:46:27.917Z,15.00
2023-05-09T14:49:02.125Z,13.67
2023-05-09T14:51:29.585Z,16.57
2023-05-09T14:53:57.048Z,15.50
2023-05-09T14:56:24.532Z,15.60
2023-05-09T14:58:51.986Z,12.70
2023-05-09T15:01:19.665Z,15.70
2023-05-09T15:03:48.040Z,13.07
2023-05-09T15:06:16.909Z,17.03
2023-05-09T15:08:44.384Z,13.80
2023-05-09T15:11:11.875Z,14.10
2023-05-09T15:13:39.376Z,18.33
2023-05-09T15:16:07.030Z,14.23
2023-05-09T15:18:34.631Z,19.40
2023-05-09T15:21:02.156Z,15.80
2023-05-09T15:23:31.024Z,16.33
2023-05-09T15:25:58.616Z,14.60
2023-05-09T15:28:26.392Z,16.97
2023-05-09T15:30:54.123Z,18.20
2023-05-09T15:33:21.686Z,17.50
2023-05-09T15:35:50.085Z,19.53
2023-05-09T15:38:18.027Z,17.10
2023-05-09T15:40:46.817Z,13.67
2023-05-09T15:43:14.276Z,13.23
2023-05-09T15:45:45.441Z,11.30
2023-05-09T15:48:13.327Z,9.97
2023-05-09T15:50:41.065Z,9.20
2023-05-09T15:53:08.522Z,8.83
2023-05-09T15:55:36.317Z,8.33
2023-05-09T15:58:05.106Z,11.70
2023-05-09T16:00:32.854Z,6.73
2023-05-09T16:03:00.408Z,9.93
2023-05-09T16:05:28.000Z,11.40
2023-05-09T16:07:55.524Z,8.03
2023-05-09T16:10:22.982Z,6.27
2023-05-09T16:12:50.501Z,7.27
2023-05-09T16:15:19.548Z,8.03
2023-05-09T16:17:47.036Z,8.87
2023-05-09T16:20:15.098Z,9.20
2023-05-09T16:22:42.942Z,8.33
2023-05-09T16:25:11.151Z,7.53
2023-05-09T16:27:38.644Z,10.33
2023-05-09T16:30:07.651Z,8.90
2023-05-09T16:32:36.817Z,7.20
2023-05-09T16:35:04.564Z,8.70
2023-05-09T16:37:33.513Z,11.27
2023-05-09T16:40:04.277Z,8.17
2023-05-09T16:42:31.807Z,9.80
2023-05-09T16:44:59.253Z,12.57
2023-05-09T16:47:26.781Z,9.33
2023-05-09T16:49:55.649Z,6.70
2023-05-09T16:52:23.849Z,9.63
2023-05-09T16:54:52.228Z,11.70
2023-05-09T16:57:19.673Z,9.50
2023-05-09T16:59:47.299Z,10.50
2023-05-09T17:02:14.760Z,15.30
2023-05-09T17:04:42.297Z,13.03
2023-05-09T17:07:12.606Z,11.33
2023-05-09T17:09:40.203Z,11.00
2023-05-09T17:12:08.068Z,17.30
2023-05-09T17:14:35.621Z,9.97
2023-05-09T17:17:03.157Z,15.40
2023-05-09T17:19:32.586Z,11.60
2023-05-09T17:22:04.138Z,13.10
2023-05-09T17:24:33.108Z,10.30
2023-05-09T17:27:01.205Z,10.77
2023-05-09T17:29:29.100Z,8.00
2023-05-09T17:31:57.441Z,7.90
2023-05-09T17:34:25.272Z,7.03
2023-05-09T17:36:52.762Z,6.97
2023-05-09T17:39:20.465Z,10.43
2023-05-09T17:41:49.317Z,8.43
2023-05-09T17:44:16.884Z,8.17
2023-05-09T17:46:44.412Z,8.60
2023-05-09T17:49:13.839Z,8.43
2023-05-09T17:51:41.389Z,9.90
2023-05-09T17:54:09.049Z,9.03
2023-05-09T17:56:36.527Z,9.50
2023-05-09T17:59:05.436Z,9.03
2023-05-09T18:01:33.000Z,11.10
2023-05-09T18:04:00.650Z,8.53
2023-05-09T18:06:28.898Z,9.83
2023-05-09T18:08:56.487Z,7.77
2023-05-09T18:11:24.525Z,9.77
2023-05-09T18:13:51.993Z,12.10
2023-05-09T18:16:20.864Z,8.73
2023-05-09T18:18:48.407Z,7.83
2023-05-09T18:21:15.895Z,10.33
2023-05-09T18:23:43.337Z,10.70
2023-05-09T18:26:10.815Z,9.00
2023-05-09T18:28:40.076Z,8.70
2023-05-09T18:31:10.021Z,12.23
2023-05-09T18:33:39.068Z,10.77
2023-05-09T18:36:08.791Z,7.57
2023-05-09T18:38:38.254Z,4.30
2023-05-09T18:41:07.039Z,5.20
2023-05-09T18:43:35.032Z,8.10
2023-05-09T18:46:03.160Z,4.33
2023-05-09T18:52:00.242Z,8.47
2023-05-09T18:54:27.678Z,6.57
2023-05-09T18:56:55.102Z,11.53
2023-05-09T18:59:23.447Z,5.13
2023-05-09T19:01:51.039Z,7.90
2023-05-09T19:04:19.450Z,4.70
2023-05-09T19:06:47.179Z,6.10
2023-05-09T19:09:16.542Z,5.87
2023-05-09T19:11:44.027Z,5.43
2023-05-09T19:14:11.491Z,4.40
2023-05-09T19:16:39.004Z,4.00
2023-05-09T19:19:06.489Z,5.77
2023-05-09T19:21:35.426Z,4.80
2023-05-09T19:24:04.617Z,6.83
2023-05-09T19:26:33.493Z,4.20
2023-05-09T19:29:04.074Z,5.30
2023-05-09T19:31:31.707Z,4.67
2023-05-09T19:33:59.645Z,4.60
2023-05-09T19:36:27.198Z,5.53
2023-05-09T19:38:54.623Z,5.50
2023-05-09T19:41:22.417Z,6.37
2023-05-09T19:43:51.576Z,6.83
2023-05-09T19:46:19.241Z,4.43
2023-05-09T19:48:46.775Z,4.50
2023-05-09T19:51:15.370Z,5.03
2023-05-09T19:53:42.922Z,5.10
2023-05-09T19:56:10.435Z,7.10
2023-05-09T19:58:37.904Z,6.70
2023-05-09T20:01:07.249Z,5.37
2023-05-09T20:03:35.066Z,4.87
2023-05-09T20:06:02.634Z,6.30
2023-05-09T20:08:30.765Z,7.27
2023-05-09T20:10:59.902Z,7.27
2023-05-09T20:13:27.795Z,9.13
2023-05-09T20:15:55.385Z,9.43
2023-05-09T20:18:24.225Z,9.03
2023-05-09T20:20:51.813Z,8.53
2023-05-09T20:23:19.332Z,7.40
2023-05-09T20:25:46.797Z,6.60
2023-05-09T20:28:19.512Z,7.70
2023-05-09T20:30:47.012Z,7.40
2023-05-09T20:33:14.467Z,8.07
2023-05-09T20:35:43.801Z,8.60
2023-05-09T20:38:11.295Z,8.93
2023-05-09T20:40:39.193Z,8.70
2023-05-09T20:43:06.648Z,7.17
2023-05-09T20:45:34.240Z,11.03
2023-05-09T20:48:03.912Z,9.97
2023-05-09T20:50:31.443Z,7.93
2023-05-09T20:53:00.259Z,6.93
2023-05-09T20:55:27.780Z,7.97
2023-05-09T20:57:55.326Z,9.53
2023-05-09T21:00:22.776Z,6.03
2023-05-09T21:02:51.446Z,6.77
2023-05-09T21:05:18.971Z,6.80
2023-05-09T21:07:46.444Z,8.00
2023-05-09T21:10:15.780Z,5.17
2023-05-09T21:12:43.555Z,5.13
2023-05-09T21:15:11.776Z,8.03
2023-05-09T21:17:39.261Z,5.60
2023-05-09T21:20:08.432Z,4.80
2023-05-09T21:22:35.981Z,4.20
2023-05-09T21:25:03.455Z,5.60
2023-05-09T21:27:32.326Z,5.67
2023-05-09T21:29:59.902Z,7.70
2023-05-09T21:32:28.439Z,4.90
2023-05-09T21:34:55.918Z,5.00
2023-05-09T21:37:23.463Z,5.40
2023-05-09T21:39:50.959Z,4.73
2023-05-09T21:42:18.413Z,5.03
2023-05-09T21:44:47.201Z,5.90
2023-05-09T21:47:14.749Z,4.50
2023-05-09T21:49:42.257Z,5.30
2023-05-09T21:52:09.935Z,4.80
2023-05-09T21:54:37.430Z,5.40
2023-05-09T21:57:04.936Z,5.37
2023-05-09T21:59:32.829Z,5.57
2023-05-09T22:02:01.677Z,5.00
2023-05-09T22:04:29.215Z,4.77
2023-05-09T22:06:56.705Z,5.30
2023-05-09T22:09:24.359Z,5.00
2023-05-09T22:11:52.926Z,4.97
2023-05-09T22:14:20.375Z,6.37
2023-05-09T22:16:47.891Z,5.87
2023-05-09T22:19:17.367Z,6.20
2023-05-09T22:21:45.136Z,5.80
2023-05-09T22:24:13.007Z,5.73
2023-05-09T22:26:40.493Z,5.03
2023-05-09T22:29:07.961Z,5.30
2023-05-09T22:31:35.837Z,5.40
2023-05-09T22:34:03.537Z,9.03
2023-05-09T22:36:33.225Z,7.50
2023-05-09T22:39:00.780Z,7.40
2023-05-09T22:41:28.414Z,8.93
2023-05-09T22:43:55.870Z,12.57
2023-05-09T22:46:23.444Z,5.87
2023-05-09T22:48:50.962Z,6.93
2023-05-09T22:51:18.431Z,6.40
2023-05-09T22:53:47.213Z,6.00
2023-05-09T22:56:14.697Z,6.77
2023-05-09T22:58:42.136Z,7.67
2023-05-09T23:01:09.616Z,7.57
2023-05-09T23:03:37.185Z,6.93
2023-05-09T23:06:04.993Z,7.07
2023-05-09T23:08:32.455Z,6.60
2023-05-09T23:11:01.241Z,5.00
2023-05-09T23:13:28.797Z,7.50
2023-05-09T23:15:56.372Z,5.30
2023-05-09T23:18:23.904Z,6.50
2023-05-09T23:20:51.591Z,6.07
2023-05-09T23:23:19.066Z,4.40
2023-05-09T23:25:46.520Z,4.80
2023-05-09T23:28:15.460Z,2.73
2023-05-09T23:30:42.939Z,2.43
2023-05-09T23:33:10.467Z,2.20
2023-05-09T23:35:37.916Z,3.30
2023-05-09T23:38:05.405Z,2.80
2023-05-09T23:40:32.857Z,2.97
2023-05-09T23:43:00.302Z,4.30
2023-05-09T23:45:29.111Z,1.83
2023-05-09T23:47:57.030Z,1.90
2023-05-09T23:50:24.530Z,1.93
2023-05-09T23:52:51.997Z,2.47
2023-05-09T23:55:19.504Z,3.20
2023-05-09T23:57:47.023Z,1.90
